Аэропорт: Шпаковское. Ставрополь

ICAO: URMT

METAR:
2021-07-28 13:30:00
URMT 281330Z 18002MPS 120V220 9999 FEW026 27/13 Q1018 R07/010070 NOSIG RMK QFE723
METAR:
2021-07-28 11:00:00
TAF URMT 281100Z 2812/2821 19003G09MPS 9999 SCT020 TEMPO 2815/2821 VRB01MPS